Terminal Aerodrome Forecast
Issued by NWS Sterling, VA

Current Version | Previous Version | Text Only | Print | Product List | Glossary Off
Versions: 1 2 3 4 5 6 7 8 9 10 11 12 13 14 15 16 17 18 19 20 21 22 23 24 25 26 27 28 29 30 31 32 33 34

000
FTUS41 KLWX 211100 CCA
TAFIAD
TAF COR
KIAD 211157Z 2112/2218 00000KT P6SM SCT100
      TEMPO 2112/2113 2SM BR SCT100
     FM211400 00000KT P6SM BKN080
     FM211800 29005KT 6SM -SHRA OVC050
     FM212100 31005KT 5SM -SHRA OVC050
     FM220000 32004KT P6SM OVC050
     FM220500 34006KT P6SM OVC030
     FM221200 33012KT P6SM OVC010
     FM221500 33015G23KT P6SM OVC015=

USA.gov is the U.S. government's official web portal to all federal, state and local government web resources and services.